CUN weather

Cancún International Airport
Cancún, Quintana Roo, Mexico

Public forecast

Using degrees Celsius for public forecast. Weather courtesy of forecast.io.

Current aviation weather report (METAR) for Cancún International Airport

Retrieved 2019/11/14 16:49 UTC (1 hour ago):

MMUN 141649Z 03003KT 6SM FEW018 OVC100 27/24 A2999 RMK 8/17/ BINOVC

Aviation forecast (TAF) for Cancún International Airport

Retrieved 2019/11/14 12:53 UTC (5 hours ago):

TAF MMUN 141045Z 1412/1518 18005KT 4SM TSRA BKN015CB OVC080 TX26/1419Z TN23/1412Z FM141600 09008KT 6SM -RA BKN015CB OVC090 TEMPO 1421/1501 3SM TSRA BKN020CB FM151200 09010KT 5SM -RA BKN020 OVC100